EGJA/ACI METAR and TAF weather

Enter ICAO airport designator
Station Type Date Time Source
EGJA METAR 2024/07/15 19:50 UTC NOAA

EGJA 151950Z 26008KT 9999 FEW010 15/14 Q1007


Station Type Date Time Source
EGJA Decoded METAR 2024/07/15 19:50 UTC NOAA

Alderney / Channel Island, United Kingdom (EGJA) 49-43N 002-12W
Jul 15, 2024 - 03:50 PM EDT / 2024.07.15 1950 UTC
Wind: from the W (260 degrees) at 9 MPH (8 KT):0
Visibility: greater than 7 mile(s):0
Sky conditions: mostly clear
Temperature: 59 F (15 C)
Dew Point: 57 F (14 C)
Relative Humidity: 93%
Pressure (altimeter): 29.74 in. Hg (1007 hPa)
ob: EGJA 151950Z 26008KT 9999 FEW010 15/14 Q1007
cycle: 20

Station Type Date Time Source
EGJA TAF UTC NOAA

Error!

Example: see airport list